Tiempo atmosférico en la estación meteorológica de Salobreña, Granada (20 m.)



Fecha
DESCASC
Temp. máxima en grados centígrados (hora)
DESCASC
Temp. mínima en grados centígrados (hora)
DESCASC
Temp. media en grados centígrados
DESCASC
Racha de viento máxima en m/sg (hora)
DESCASC
Velocidad máxima media en intervalos de 10 minutos(hora)
DESCASC
Precipitaciones diarias en mm
DESCASC
Precipitaciones de 00:00 a 06:00 en mm
DESCASC
Precipitaciones de 06:00 a 12:00 en mm
DESCASC
Precipitaciones de 12:00 a 18:00 en mm
DESCASC
Precipitaciones de 18:00 a 24:00 en mm
DESCASC
06-12-2018 18.6 (12:50) 7.3 (05:50) 13 3.89 (14:00) 2.5 (14:00) 0 0 0 0 0
05-12-2018 22.4 (12:20) 10.1 (08:30) 16.3 4.72 (05:50) 3.33 (06:10) 0 0 0 0 0
04-12-2018 22.8 (13:20) 9.1 (05:30) 15.9 4.44 (14:40) 2.78 (14:40) 0 0 0 0 0
03-12-2018 20.7 (14:30) 8.6 (00:00) 14.7 3.61 (08:20) 2.5 (08:20) 0 0 0 0 0
02-12-2018 19.2 (14:00) 7.9 (00:00) 13.6 3.89 (14:30) 2.5 (04:30) 0 0 0 0 0
01-12-2018 20 (12:30) 9.7 (00:00) 14.8 8.61 (09:40) 5 (06:30) 0 0 0 0 0
30-11-2018 22.2 (14:10) 8.2 (00:00) 15.2 11.67 (11:50) 6.11 (16:50) 0 0 0 0 0
29-11-2018 17.7 (14:50) 5.4 (00:00) 11.6 5 (23:00) 2.78 (04:40) 0 0 0 0 0
28-11-2018 18.9 (11:30) 6.7 (00:00) 12.8 5.56 (05:30) 3.61 (05:30) 0 0 0 0 0
27-11-2018 19.7 (14:10) 8.5 (00:00) 14.1 9.44 (09:10) 5.56 (09:10) 0 0 0 0 0
26-11-2018 18.9 (14:20) 13.3 (23:40) 16.1 21.11 (08:30) 10.28 (08:00) 0.4 0.4 0 0 0
25-11-2018 18.2 (15:00) 9.2 (00:00) 13.7 12.22 (15:10) 5.83 (15:30) 0.2 0 0 0 0.2
24-11-2018 19 (15:20) 9.5 (00:00) 14.3 8.61 (15:30) 5.56 (04:00) 0 0 0 0 0
23-11-2018 18 (15:30) 10.9 (00:00) 14.4 6.39 (12:30) 3.06 (22:40) 6.6 2.2 4.4 0 0
22-11-2018 16.6 (13:00) 11.5 (00:00) 14.1 6.39 (11:40) 3.33 (11:50) 1.6 0 1.6 0 0
21-11-2018 16.3 (15:00) 11.3 (00:00) 13.8 5.28 (02:00) 2.78 (07:30) 8 0 5.2 2.4 0.4
20-11-2018 18.3 (16:30) 10.5 (00:00) 14.4 10 (16:00) 5 (16:00) 8.6 0.2 3.2 5.2 0
19-11-2018 17.3 (12:00) 11.6 (00:00) 14.4 13.06 (15:00) 6.39 (15:20) 19.6 10 8.8 0.8 0
18-11-2018 18.9 (12:10) 12.4 (00:00) 15.6 7.78 (13:20) 4.44 (13:40) 38.8 0 0 31.4 7.4
17-11-2018 21.2 (12:50) 12.2 (00:00) 16.7 8.89 (14:40) 4.72 (14:20) 0 0 0 0 0
16-11-2018 21.9 (14:50) 12.5 (00:00) 17.2 6.11 (16:10) 3.33 (14:40) 0.2 0.2 0 0 0
15-11-2018 20 (15:30) 12.7 (00:00) 16.3 8.06 (00:20) 4.44 (00:20) 7.8 7.4 0 0 0.4
14-11-2018 23.8 (13:40) 13.1 (00:00) 18.4 9.72 (12:50) 4.44 (17:00) 0.2 0.2 0 0 0
13-11-2018 21.6 (16:00) 12.2 (00:00) 16.9 5 (06:00) 3.33 (06:00) 0 0 0 0 0
12-11-2018 19.1 (12:40) 9.2 (00:00) 14.2 4.44 (00:40) 3.33 (00:40) 0 0 0 0 0
11-11-2018 20.8 (12:20) 11.7 (00:00) 16.2 8.06 (08:30) 3.89 (08:40) 0 0 0 0 0
10-11-2018 19.9 (10:40) 11.9 (00:00) 15.9 8.61 (00:50) 5.56 (00:50) 0 0 0 0 0

Gráficas

Temp. máximas Temp. mínimas Temp. medias Precipitaciones Rachas de viento máximas Velocidades máximas media en intervalos de 10 minutos

Datos horarios

Fecha y hora oficial Temperatura (ºC) Velocidad del viento (km/h) Dirección del viento Racha (km/h) Dirección de racha Precipitación (mm) Presión (hPa) Tendencia (hPa) Humedad (%)
2018-12-09 23:00:00 9.4 2 Norte 6 Nordeste 0 -- -- 95
2018-12-09 22:00:00 10.2 3 Nordeste 6 Norte 0 -- -- 95
2018-12-09 21:00:00 11 3 Nordeste 6 Nordeste 0 -- -- 95
2018-12-09 20:00:00 11.9 4 Norte 6 Norte 0 -- -- 92
2018-12-09 19:00:00 13.2 3 Norte 7 Norte 0 -- -- 88
2018-12-09 18:00:00 16.3 0 Calma 6 Oeste 0 -- -- 82
2018-12-09 17:00:00 18.3 3 Oeste 9 Sudoeste 0 -- -- 74
2018-12-09 16:00:00 18.4 6 Sudoeste 10 Sudoeste 0 -- -- 79
2018-12-09 15:00:00 19 6 Sudoeste 12 Sudoeste 0 -- -- 75
2018-12-09 14:00:00 19.1 6 Sudoeste 14 Oeste 0 -- -- 75
2018-12-09 13:00:00 19.2 6 Sudoeste 12 Sudoeste 0 -- -- 73
2018-12-09 12:00:00 18.5 2 Norte 6 Nordeste 0 -- -- 70
2018-12-09 11:00:00 17.3 5 Nordeste 9 Nordeste 0 -- -- 67
2018-12-09 10:00:00 15.8 3 Nordeste 13 Nordeste 0 -- -- 69
2018-12-09 09:00:00 11.3 8 Nordeste 14 Nordeste 0 -- -- 81
2018-12-09 08:00:00 11.2 5 Nordeste 13 Nordeste 0 -- -- 80
2018-12-09 07:00:00 11.2 7 Nordeste 17 Nordeste 0 -- -- 81
2018-12-09 06:00:00 11.1 8 Nordeste 18 Nordeste 0 -- -- 84
2018-12-09 05:00:00 10.5 10 Nordeste 18 Nordeste 0 -- -- 90
2018-12-09 04:00:00 10.8 10 Nordeste 15 Nordeste 0 -- -- 90
2018-12-09 03:00:00 11.3 10 Nordeste 14 Nordeste 0 -- -- 90
2018-12-09 02:00:00 11.2 10 Nordeste 14 Nordeste 0 -- -- 93
2018-12-09 01:00:00 10.7 8 Nordeste 11 Nordeste 0 -- -- 96
2018-12-09 00:00:00 11.1 6 Nordeste 12 Nordeste 0 -- -- 95
2018-12-08 23:00:00 11.2 5 Nordeste 11 Nordeste 0 -- -- 94
2018-12-08 22:00:00 11.6 8 Norte 11 Nordeste 0 -- -- 94
2018-12-08 21:00:00 12.2 6 Nordeste 9 Nordeste 0 -- -- 94
2018-12-08 20:00:00 13 4 Norte 8 Nordeste 0 -- -- 90
2018-12-08 19:00:00 15.1 4 Norte 10 Oeste 0 -- -- 86
2018-12-08 18:00:00 16.9 4 Oeste 12 Oeste 0 -- -- 80
2018-12-08 17:00:00 18.8 4 Sur 18 Sur 0 -- -- 68
2018-12-08 16:00:00 19.7 6 Oeste 19 Oeste 0 -- -- 72
2018-12-08 15:00:00 20.5 6 Sudoeste 19 Sur 0 -- -- 68
2018-12-08 14:00:00 20.2 10 Oeste 23 Noroeste 0 -- -- 69
2018-12-08 13:00:00 19.2 9 Sudoeste 23 Sudoeste 0 -- -- 74
2018-12-08 12:00:00 18.7 10 Oeste 20 Oeste 0 -- -- 78
2018-12-08 11:00:00 17.1 6 Sudoeste 12 Sudoeste 0 -- -- 82
2018-12-08 10:00:00 14.2 3 Oeste 6 Oeste 0 -- -- 100
2018-12-08 09:00:00 10.2 2 Norte 9 Nordeste 0 -- -- 100
2018-12-08 08:00:00 7.7 3 Nordeste 7 Norte 0 -- -- 100
2018-12-08 07:00:00 7.9 2 Norte 10 Norte 0 -- -- 98
2018-12-08 06:00:00 7.6 4 Norte 6 Norte 0 -- -- 100
2018-12-08 05:00:00 7.5 2 Norte 6 Nordeste 0 -- -- 98
2018-12-08 04:00:00 8 3 Norte 7 Norte 0 -- -- 98
2018-12-08 03:00:00 8.1 4 Norte 8 Nordeste 0 -- -- 97
2018-12-08 02:00:00 8.4 4 Norte 10 Nordeste 0 -- -- 97
2018-12-08 01:00:00 9.6 2 Norte 9 Norte 0 -- -- 95
2018-12-08 00:00:00 11.2 4 Norte 8 Norte 0 -- -- 95
2018-12-07 23:00:00 12.4 4 Norte 6 Norte 0 -- -- 94
2018-12-07 22:00:00 13.2 3 Norte 5 Oeste 0 -- -- 93
2018-12-07 21:00:00 13.9 3 Noroeste 8 Noroeste 0 -- -- 91
2018-12-07 20:00:00 14.1 3 Oeste 7 Oeste 0 -- -- 91
2018-12-07 19:00:00 14.4 4 Sudoeste 8 Sur 0 -- -- 90
2018-12-07 18:00:00 14.7 4 Sudoeste 11 Sudoeste 0 -- -- 89
2018-12-07 17:00:00 15.1 5 Sudoeste 9 Sudoeste 0 -- -- 87
2018-12-07 16:00:00 15.5 5 Oeste 15 Sudoeste 0 -- -- 85
2018-12-07 15:00:00 16.5 9 Sudoeste 17 Oeste 0 -- -- 81
2018-12-07 14:00:00 17.1 9 Sudoeste 14 Oeste 0 -- -- 78
2018-12-07 13:00:00 17.3 7 Sudoeste 12 Sudoeste 0 -- -- 77
2018-12-07 12:00:00 16.9 4 Sudoeste 7 Sur 0 -- -- 79
2018-12-07 11:00:00 16.1 4 Sur 6 Sur 0 -- -- 80
2018-12-07 10:00:00 11.6 3 Norte 8 Norte 0 -- -- 99
2018-12-07 09:00:00 8 8 Norte 12 Norte 0 -- -- 99
2018-12-07 08:00:00 7.3 5 Norte 9 Norte 0 -- -- 98
2018-12-07 07:00:00 7.7 6 Norte 9 Norte 0 -- -- 97
2018-12-07 06:00:00 8.6 6 Nordeste 12 Norte 0 -- -- 98
2018-12-07 05:00:00 7.8 5 Nordeste 8 Norte 0 -- -- 97
2018-12-07 04:00:00 8.3 2 Norte 8 Nordeste 0 -- -- 97
2018-12-07 03:00:00 8.4 6 Norte 10 Norte 0 -- -- 97
2018-12-07 02:00:00 8.7 5 Norte 8 Nordeste 0 -- -- 97
2018-12-07 01:00:00 9 3 Norte 9 Nordeste 0 -- -- 97
2018-12-07 00:00:00 9.5 4 Norte 8 Nordeste 0 -- -- 97
2018-12-06 23:00:00 10.1 6 Nordeste 9 Norte 0 -- -- 97
2018-12-06 22:00:00 10.2 4 Norte 6 Norte 0 -- -- 97
2018-12-06 21:00:00 10.5 4 Nordeste 6 Nordeste 0 -- -- 96
2018-12-06 20:00:00 10.9 0 Calma 7 Norte 0 -- -- 93
2018-12-06 19:00:00 12.6 6 Norte 8 Norte 0 -- -- 91
2018-12-06 18:00:00 15 0 Calma 6 Noroeste 0 -- -- 86
2018-12-06 17:00:00 17.3 2 Noroeste 8 Sudoeste 0 -- -- 85
2018-12-06 16:00:00 17.7 3 Sudoeste 13 Sudoeste 0 -- -- 83
2018-12-06 15:00:00 18 6 Sudoeste 14 Sudoeste 0 -- -- 82
2018-12-06 14:00:00 18.1 9 Sudoeste 14 Sudoeste 0 -- -- 81
2018-12-06 13:00:00 18.6 6 Sudoeste 13 Sur 0 -- -- 79
2018-12-06 12:00:00 18.1 6 Sudoeste 10 Sudoeste 0 -- -- 81
2018-12-06 11:00:00 17.3 4 Oeste 9 Sur 0 -- -- 82
2018-12-06 10:00:00 14 0 Calma 5 Nordeste 0 -- -- 99
2018-12-06 09:00:00 9.1 4 Nordeste 10 Norte 0 -- -- 100
2018-12-06 08:00:00 8.2 4 Norte 9 Nordeste 0 -- -- 99
2018-12-06 07:00:00 8 4 Norte 8 Norte 0 -- -- 97
2018-12-06 06:00:00 7.3 2 Noroeste 6 Norte 0 -- -- 98
2018-12-06 05:00:00 7.7 3 Nordeste 6 Norte 0 -- -- 98
2018-12-06 04:00:00 8.1 3 Nordeste 6 Norte 0 -- -- 97
2018-12-06 03:00:00 8.5 3 Norte 6 Norte 0 -- -- 95
2018-12-06 02:00:00 9.5 4 Norte 8 Nordeste 0 -- -- 96
2018-12-06 01:00:00 9.9 5 Norte 7 Norte 0 -- -- 95
2018-12-06 00:00:00 10.2 4 Norte 10 Nordeste 0 -- -- 95
2018-12-05 23:00:00 10.8 8 Nordeste 13 Norte 0 -- -- 95
2018-12-05 22:00:00 10.7 2 Norte 8 Norte 0 -- -- 94
2018-12-05 21:00:00 11.4 5 Norte 10 Norte 0 -- -- 93
2018-12-05 20:00:00 12.1 6 Norte 9 Norte 0 -- -- 91
2018-12-05 19:00:00 13.3 4 Norte 7 Norte 0 -- -- 87
2018-12-05 18:00:00 16.4 4 Norte 5 Norte 0 -- -- 80
2018-12-05 17:00:00 19.3 3 Sur 8 Sur 0 -- -- 68
2018-12-05 16:00:00 19.8 5 Sudoeste 10 Sudoeste 0 -- -- 66
2018-12-05 15:00:00 20.6 6 Sudoeste 11 Sudoeste 0 -- -- 60
2018-12-05 14:00:00 20.5 6 Sudoeste 12 Sur 0 -- -- 60
2018-12-05 13:00:00 20.6 9 Sudoeste 13 Sudoeste 0 -- -- 59
2018-12-05 12:00:00 21.9 3 Sudoeste 6 Sudeste 0 -- -- 54
2018-12-05 11:00:00 20.3 3 Nordeste 10 Nordeste 0 -- -- 61
2018-12-05 10:00:00 15.4 7 Nordeste 12 Nordeste 0 -- -- 74
2018-12-05 09:00:00 11.5 6 Nordeste 13 Nordeste 0 -- -- 84
2018-12-05 08:00:00 10.7 8 Nordeste 14 Nordeste 0 -- -- 84
2018-12-05 07:00:00 11.1 11 Nordeste 16 Nordeste 0 -- -- 84
2018-12-05 06:00:00 11 10 Nordeste 17 Nordeste 0 -- -- 88
2018-12-05 05:00:00 10.6 8 Nordeste 13 Nordeste 0 -- -- 90
2018-12-05 04:00:00 11.2 6 Nordeste 12 Nordeste 0 -- -- 90
2018-12-05 03:00:00 10.4 7 Nordeste 10 Nordeste 0 -- -- 93
2018-12-05 02:00:00 11.3 6 Nordeste 13 Nordeste 0 -- -- 90
2018-12-05 01:00:00 11.6 9 Norte 13 Nordeste 0 -- -- 91
2018-12-05 00:00:00 12 7 Nordeste 13 Nordeste 0 -- -- 92
2018-12-04 23:00:00 12 8 Nordeste 11 Norte 0 -- -- 95
2018-12-04 22:00:00 11.3 9 Norte 11 Norte 0 -- -- 95
2018-12-04 21:00:00 12 6 Nordeste 10 Norte 0 -- -- 93
2018-12-04 20:00:00 12.6 7 Norte 9 Norte 0 -- -- 92
2018-12-04 19:00:00 14.1 6 Nordeste 8 Nordeste 0 -- -- 86
2018-12-04 18:00:00 17.1 2 Noroeste 8 Sudoeste 0 -- -- 80
2018-12-04 17:00:00 20.3 3 Sur 12 Sur 0 -- -- 67
2018-12-04 16:00:00 20.7 7 Sur 12 Sudoeste 0 -- -- 62
2018-12-04 15:00:00 21.4 5 Sudoeste 16 Sudoeste 0 -- -- 59
2018-12-04 14:00:00 22.3 6 Sudoeste 10 Sudoeste 0 -- -- 55
2018-12-04 13:00:00 22.4 4 Oeste 10 Sudoeste 0 -- -- 57
2018-12-04 12:00:00 22.5 4 Sur 6 Sur 0 -- -- 56
2018-12-04 11:00:00 19.8 3 Nordeste 10 Nordeste 0 -- -- 67
2018-12-04 10:00:00 16.3 3 Nordeste 9 Nordeste 0 -- -- 84
2018-12-04 09:00:00 11.5 4 Nordeste 13 Nordeste 0 -- -- 90
2018-12-04 08:00:00 9.7 8 Nordeste 13 Nordeste 0 -- -- 93
2018-12-04 07:00:00 9.4 7 Norte 11 Norte 0 -- -- 95
2018-12-04 06:00:00 9.1 7 Norte 9 Norte 0 -- -- 95
2018-12-04 05:00:00 9.4 7 Norte 12 Norte 0 -- -- 95
2018-12-04 04:00:00 9.4 5 Norte 7 Norte 0 -- -- 95
2018-12-04 03:00:00 9.8 3 Nordeste 9 Norte 0 -- -- 95
2018-12-04 02:00:00 10.2 5 Norte 11 Norte 0 -- -- 95
2018-12-04 01:00:00 10.7 8 Nordeste 10 Nordeste 0 -- -- 96
2018-12-04 00:00:00 10.9 5 Nordeste 9 Norte 0 -- -- 96
2018-12-03 23:00:00 11.8 5 Norte 10 Nordeste 0 -- -- 97
2018-12-03 22:00:00 11.7 6 Nordeste 9 Norte 0 -- -- 97
2018-12-03 21:00:00 11.6 4 Norte 8 Norte 0 -- -- 96
2018-12-03 20:00:00 12.3 4 Norte 8 Nordeste 0 -- -- 93
2018-12-03 19:00:00 13.6 4 Nordeste 5 Nordeste 0 -- -- 89
2018-12-03 18:00:00 15.9 0 Calma 6 Sur 0 -- -- 84
2018-12-03 17:00:00 18.8 2 Sudoeste 8 Sur 0 -- -- 79
2018-12-03 16:00:00 19.7 4 Sur 10 Sudoeste 0 -- -- 73
2018-12-03 15:00:00 20.2 6 Sudoeste 12 Sudoeste 0 -- -- 66
2018-12-03 14:00:00 20.6 6 Sudoeste 9 Sur 0 -- -- 59
2018-12-03 13:00:00 20.5 3 Sudoeste 8 Sudoeste 0 -- -- 63
2018-12-03 12:00:00 18.9 5 Sudoeste 9 Sudoeste 0 -- -- 72
2018-12-03 11:00:00 18.6 6 Sudoeste 10 Sur 0 -- -- 73
2018-12-03 10:00:00 15.3 0 Calma 3 Nordeste 0 -- -- 98
2018-12-03 09:00:00 10.5 0 Calma 13 Norte 0 -- -- 99
2018-12-03 08:00:00 8.9 7 Norte 11 Norte 0 -- -- 98
2018-12-03 07:00:00 8.8 6 Nordeste 9 Nordeste 0 -- -- 98
2018-12-03 06:00:00 8.7 5 Nordeste 7 Norte 0 -- -- 98
2018-12-03 05:00:00 8.9 3 Nordeste 6 Norte 0 -- -- 97
2018-12-03 04:00:00 9.4 5 Norte 9 Norte 0 -- -- 98
2018-12-03 03:00:00 9.7 4 Norte 9 Norte 0 -- -- 98
2018-12-03 02:00:00 9.7 4 Nordeste 10 Nordeste 0 -- -- 98
2018-12-03 01:00:00 10.1 5 Nordeste 9 Norte 0 -- -- 97
2018-12-03 00:00:00 10.2 6 Nordeste 8 Nordeste 0 -- -- 97
2018-12-02 23:00:00 10.1 4 Nordeste 8 Nordeste 0 -- -- 96
2018-12-02 22:00:00 10.4 3 Norte 6 Norte 0 -- -- 96
2018-12-02 21:00:00 10.6 3 Norte 8 Norte 0 -- -- 95
2018-12-02 20:00:00 11.7 5 Norte 8 Norte 0 -- -- 94
2018-12-02 19:00:00 12.9 4 Nordeste 8 Nordeste 0 -- -- 90
2018-12-02 18:00:00 14.9 0 Calma 4 Norte 0 -- -- 86
2018-12-02 17:00:00 16.9 2 Sudoeste 10 Sudoeste 0 -- -- 79
2018-12-02 16:00:00 17.6 7 Sudoeste 12 Sudoeste 0 -- -- 76
2018-12-02 15:00:00 18.2 5 Sudoeste 14 Sudoeste 0 -- -- 64
2018-12-02 14:00:00 19.2 5 Sudoeste 13 Sur 0 -- -- 67
2018-12-02 13:00:00 19.1 5 Sudoeste 10 Sudoeste 0 -- -- 65
2018-12-02 12:00:00 18.3 5 Sudoeste 9 Sur 0 -- -- 65
2018-12-02 11:00:00 17.6 0 Calma 6 Nordeste 0 -- -- 69
2018-12-02 10:00:00 14.1 4 Nordeste 11 Nordeste 0 -- -- 82
2018-12-02 09:00:00 9.2 5 Nordeste 11 Nordeste 0 -- -- 91
2018-12-02 08:00:00 8.2 7 Norte 12 Norte 0 -- -- 91
2018-12-02 07:00:00 8.1 6 Norte 8 Norte 0 -- -- 93
2018-12-02 06:00:00 7.9 4 Norte 7 Nordeste 0 -- -- 93
2018-12-02 05:00:00 8.6 5 Norte 11 Norte 0 -- -- 90
2018-12-02 04:00:00 8.7 5 Norte 11 Norte 0 -- -- 91
2018-12-02 03:00:00 8.7 6 Norte 10 Norte 0 -- -- 95
2018-12-02 02:00:00 8.8 4 Noroeste 11 Nordeste 0 -- -- 92
2018-12-02 01:00:00 9.2 7 Norte 11 Nordeste 0 -- -- 92
2018-12-02 00:00:00 9.7 6 Nordeste 12 Nordeste 0 -- -- 92
2018-12-01 23:00:00 10.4 8 Norte 12 Norte 0 -- -- 93
2018-12-01 22:00:00 10.4 8 Norte 11 Nordeste 0 -- -- 94
2018-12-01 21:00:00 11.2 5 Norte 10 Nordeste 0 -- -- 92
2018-12-01 20:00:00 11.5 5 Nordeste 9 Norte 0 -- -- 91
2018-12-01 19:00:00 13 7 Norte 13 Sudoeste 0 -- -- 85
2018-12-01 18:00:00 16.1 6 Oeste 18 Oeste 0 -- -- 72
2018-12-01 17:00:00 17.7 6 Sudoeste 19 Sudoeste 0 -- -- 59
2018-12-01 16:00:00 18 8 Sudoeste 19 Sudoeste 0 -- -- 54
2018-12-01 15:00:00 18.5 8 Sudoeste 17 Sudoeste 0 -- -- 48
2018-12-01 14:00:00 19.1 7 Sudoeste 16 Sudoeste 0 -- -- 47
2018-12-01 13:00:00 19.1 9 Sudoeste 15 Sudoeste 0 -- -- 45
2018-12-01 12:00:00 19.6 4 Nordeste 13 Nordeste 0 -- -- 38
2018-12-01 11:00:00 17.4 6 Nordeste 22 Nordeste 0 -- -- 45
2018-12-01 10:00:00 14.3 13 Nordeste 31 Nordeste 0 -- -- 49
2018-12-01 09:00:00 11.9 12 Nordeste 23 Nordeste 0 -- -- 57
2018-12-01 08:00:00 11.5 15 Nordeste 29 Nordeste 0 -- -- 58
2018-12-01 07:00:00 11.9 16 Nordeste 31 Nordeste 0 -- -- 56
2018-12-01 06:00:00 12.3 17 Nordeste 31 Nordeste 0 -- -- 55
2018-12-01 05:00:00 12.3 18 Nordeste 31 Nordeste 0 -- -- 56
2018-12-01 04:00:00 12.5 14 Nordeste 25 Nordeste 0 -- -- 56
2018-12-01 03:00:00 13 10 Nordeste 22 Nordeste 0 -- -- 53
2018-12-01 02:00:00 12.6 12 Nordeste 25 Nordeste 0 -- -- 57
2018-12-01 01:00:00 13.6 13 Nordeste 27 Nordeste 0 -- -- 52
2018-12-01 00:00:00 14.4 15 Nordeste 31 Nordeste 0 -- -- 48
2018-11-30 23:00:00 15.1 19 Nordeste 31 Nordeste 0 -- -- 46
2018-11-30 22:00:00 15.7 19 Nordeste 32 Nordeste 0 -- -- 43
2018-11-30 21:00:00 16.2 8 Nordeste 21 Nordeste 0 -- -- 42
2018-11-30 20:00:00 16.6 10 Nordeste 23 Nordeste 0 -- -- 42
2018-11-30 19:00:00 17 14 Nordeste 27 Nordeste 0 -- -- 41
2018-11-30 18:00:00 15.9 2 Este 18 Norte 0 -- -- 50
2018-11-30 17:00:00 20.5 20 Norte 42 Norte 0 -- -- 22
2018-11-30 16:00:00 21.5 15 Noroeste 30 Noroeste 0 -- -- 26
2018-11-30 15:00:00 22.1 11 Noroeste 27 Noroeste 0 -- -- 45
2018-11-30 14:00:00 22.1 11 Noroeste 31 Noroeste 0 -- -- 43
2018-11-30 13:00:00 21.6 13 Noroeste 34 Noroeste 0 -- -- 53
2018-11-30 12:00:00 20.9 15 Norte 42 Norte 0 -- -- 52
2018-11-30 11:00:00 18.6 12 Oeste 35 Oeste 0 -- -- 75
2018-11-30 10:00:00 17 10 Oeste 30 Oeste 0 -- -- 79
2018-11-30 09:00:00 12.8 6 Oeste 17 Oeste 0 -- -- 99
2018-11-30 08:00:00 9.8 4 Norte 10 Norte 0 -- -- 97
2018-11-30 07:00:00 9.2 3 Norte 8 Nordeste 0 -- -- 97
2018-11-30 06:00:00 8.5 5 Norte 9 Norte 0 -- -- 96
2018-11-30 05:00:00 8.2 4 Norte 10 Nordeste 0 -- -- 96
2018-11-30 04:00:00 8.3 5 Norte 9 Norte 0 -- -- 95
2018-11-30 03:00:00 8.9 3 Norte 11 Nordeste 0 -- -- 94
2018-11-30 02:00:00 8.8 6 Norte 9 Norte 0 -- -- 94
2018-11-30 01:00:00 9.8 6 Norte 12 Nordeste 0 -- -- 92
2018-11-30 00:00:00 10.8 9 Nordeste 13 Nordeste 0 -- -- 94
2018-11-29 23:00:00 11.1 8 Nordeste 18 Nordeste 0 -- -- 96
2018-11-29 22:00:00 10.6 7 Nordeste 10 Norte 0 -- -- 97
2018-11-29 21:00:00 11 8 Nordeste 12 Nordeste 0 -- -- 97
2018-11-29 20:00:00 11.4 7 Norte 10 Norte 0 -- -- 95
2018-11-29 19:00:00 12.7 5 Norte 7 Norte 0 -- -- 92
2018-11-29 18:00:00 14.8 4 Norte 17 Oeste 0 -- -- 89
2018-11-29 17:00:00 16.1 8 Sudoeste 18 Oeste 0 -- -- 86
2018-11-29 16:00:00 17.2 7 Sudoeste 15 Sudoeste 0 -- -- 82
2018-11-29 15:00:00 17.7 6 Sudoeste 15 Sur 0 -- -- 78
2018-11-29 14:00:00 17.5 10 Sudoeste 18 Sudoeste 0 -- -- 77
2018-11-29 13:00:00 17.5 5 Sudoeste 11 Sudoeste 0 -- -- 56
2018-11-29 12:00:00 17.5 6 Sudoeste 11 Sudoeste 0 -- -- 56
2018-11-29 11:00:00 16.5 0 Calma 4 Norte 0 -- -- 54
2018-11-29 10:00:00 13.3 0 Calma 6 Norte 0 -- -- 75
2018-11-29 09:00:00 7.2 4 Nordeste 10 Norte 0 -- -- 92
2018-11-29 08:00:00 5.6 4 Nordeste 12 Nordeste 0 -- -- 89
2018-11-29 07:00:00 6.2 5 Nordeste 14 Nordeste 0 -- -- 85
2018-11-29 06:00:00 6.1 6 Norte 10 Nordeste 0 -- -- 87
2018-11-29 05:00:00 6.9 8 Nordeste 13 Nordeste 0 -- -- 86
2018-11-29 04:00:00 6.5 6 Norte 12 Nordeste 0 -- -- 90
2018-11-29 03:00:00 6.4 8 Nordeste 11 Nordeste 0 -- -- 94
2018-11-29 02:00:00 6.8 5 Norte 10 Norte 0 -- -- 93
2018-11-29 01:00:00 7.5 6 Norte 10 Nordeste 0 -- -- 94
2018-11-29 00:00:00 7.8 7 Norte 10 Nordeste 0 -- -- 94
2018-11-28 23:00:00 8.7 7 Nordeste 11 Nordeste 0 -- -- 95
2018-11-28 22:00:00 8.9 6 Norte 10 Nordeste 0 -- -- 95
2018-11-28 21:00:00 9.6 7 Norte 9 Norte 0 -- -- 94
2018-11-28 13:00:00 -- -- -- -- -- -- -- -- --
2018-11-28 12:00:00 -- -- -- -- -- -- -- -- --
2018-11-28 11:00:00 -- -- -- -- -- -- -- -- --
2018-11-28 10:00:00 14.3 0 Calma 9 Norte 0 -- -- 65
2018-11-28 09:00:00 7.9 3 Norte 12 Nordeste 0 -- -- 85
2018-11-28 08:00:00 8.4 6 Nordeste 16 Nordeste 0 -- -- 75
2018-11-28 07:00:00 7.8 8 Nordeste 14 Nordeste 0 -- -- 79
2018-11-28 06:00:00 8.9 8 Nordeste 20 Nordeste 0 -- -- 74
2018-11-28 05:00:00 8 7 Nordeste 15 Nordeste 0 -- -- 81
2018-11-28 04:00:00 10.1 9 Nordeste 16 Nordeste 0 -- -- 71
2018-11-28 03:00:00 9.8 6 Nordeste 18 Nordeste 0 -- -- 76
2018-11-28 02:00:00 10 9 Nordeste 17 Nordeste 0 -- -- 76
2018-11-28 01:00:00 9.9 10 Nordeste 16 Nordeste 0 -- -- 79
2018-11-28 00:00:00 9.7 7 Nordeste 16 Nordeste 0 -- -- 82
2018-11-27 23:00:00 8.9 9 Nordeste 13 Nordeste 0 -- -- 89
2018-11-27 22:00:00 9.3 6 Nordeste 12 Nordeste 0 -- -- 88
2018-11-27 21:00:00 9.1 7 Norte 12 Nordeste 0 -- -- 89
2018-11-27 20:00:00 10.3 8 Nordeste 12 Nordeste 0 -- -- 87
2018-11-27 19:00:00 11.1 6 Norte 10 Nordeste 0 -- -- 86
2018-11-27 18:00:00 14.4 3 Norte 7 Sudoeste 0 -- -- 78
2018-11-27 17:00:00 18.1 4 Sudoeste 12 Oeste 0 -- -- 58
2018-11-27 16:00:00 18.5 6 Sudoeste 15 Oeste 0 -- -- 58
2018-11-27 15:00:00 18.9 10 Oeste 18 Oeste 0 -- -- 52
2018-11-27 14:00:00 19.6 6 Oeste 14 Oeste 0 -- -- 48
2018-11-27 13:00:00 18.8 5 Oeste 12 Oeste 0 -- -- 55
2018-11-27 12:00:00 19.2 8 Nordeste 17 Nordeste 0 -- -- 49
2018-11-27 11:00:00 16.3 11 Nordeste 28 Nordeste 0 -- -- 57
2018-11-27 10:00:00 14.2 14 Nordeste 34 Nordeste 0 -- -- 61
2018-11-27 09:00:00 11.8 15 Nordeste 32 Nordeste 0 -- -- 66
2018-11-27 08:00:00 11.4 19 Nordeste 34 Nordeste 0 -- -- 68
2018-11-27 07:00:00 11.4 14 Nordeste 27 Nordeste 0 -- -- 69
2018-11-27 06:00:00 11.3 13 Nordeste 25 Nordeste 0 -- -- 70
2018-11-27 05:00:00 11.5 8 Nordeste 22 Nordeste 0 -- -- 70
2018-11-27 04:00:00 11.7 4 Este 15 Nordeste 0 -- -- 69
2018-11-27 03:00:00 11.6 3 Nordeste 13 Norte 0 -- -- 71
2018-11-27 02:00:00 11.5 0 Calma 13 Nordeste 0 -- -- 72
2018-11-27 01:00:00 12.5 3 Nordeste 16 Nordeste 0 -- -- 67
2018-11-27 00:00:00 13.4 11 Nordeste 22 Nordeste 0 -- -- 62
2018-11-26 23:00:00 13.8 4 Nordeste 23 Nordeste 0 -- -- 61
2018-11-26 22:00:00 14.6 8 Nordeste 26 Nordeste 0 -- -- 56
2018-11-26 21:00:00 14.4 15 Nordeste 26 Norte 0 -- -- 57
2018-11-26 20:00:00 15.3 9 Nordeste 38 Norte 0 -- -- 53
2018-11-26 19:00:00 16 22 Norte 44 Norte 0 -- -- 50
2018-11-26 18:00:00 15.9 21 Norte 50 Noroeste 0 -- -- 50
2018-11-26 17:00:00 16.6 27 Noroeste 58 Noroeste 0 -- -- 48
2018-11-26 16:00:00 17.6 30 Norte 60 Nordeste 0 -- -- 48
2018-11-26 15:00:00 17.9 30 Norte 57 Norte 0 -- -- 47
2018-11-26 14:00:00 18.8 15 Norte 39 Nordeste 0 -- -- 45
2018-11-26 13:00:00 18.5 19 Norte 50 Norte 0 -- -- 46
2018-11-26 12:00:00 17.7 25 Noroeste 63 Noroeste 0 -- -- 45
2018-11-26 11:00:00 16.5 25 Noroeste 55 Noroeste 0 -- -- 46
2018-11-26 10:00:00 15 27 Noroeste 51 Noroeste 0 -- -- 50
2018-11-26 09:00:00 14 26 Noroeste 76 Norte 0 -- -- 53
2018-11-26 08:00:00 14.3 37 Norte 64 Noroeste 0 -- -- 53
2018-11-26 07:00:00 14.4 19 Noroeste 59 Norte 0 -- -- 56
2018-11-26 06:00:00 15.8 28 Norte 50 Norte 0 -- -- 51
2018-11-26 05:00:00 16.5 25 Noroeste 42 Noroeste 0 -- -- 56
2018-11-26 04:00:00 14.7 4 Norte 13 Oeste 0 -- -- 93
2018-11-26 03:00:00 16.1 5 Noroeste 15 Oeste 0.2 -- -- 95
2018-11-26 02:00:00 15.8 6 Oeste 15 Oeste 0.2 -- -- 94
2018-11-26 01:00:00 15.5 2 Norte 9 Sudoeste 0 -- -- 95
2018-11-26 00:00:00 15.8 4 Oeste 20 Noroeste 0.2 -- -- 92
2018-11-25 23:00:00 16.8 13 Noroeste 29 Noroeste 0 -- -- 84
2018-11-25 22:00:00 16.7 6 Oeste 22 Oeste 0 -- -- 86
2018-11-25 21:00:00 16.8 10 Oeste 21 Oeste 0 -- -- 87
2018-11-25 20:00:00 16.3 5 Oeste 21 Oeste 0 -- -- 84
2018-11-25 19:00:00 16.2 10 Oeste 26 Oeste 0 -- -- 87
2018-11-25 18:00:00 16.3 7 Noroeste 23 Oeste 0 -- -- 90
2018-11-25 17:00:00 17.1 12 Oeste 32 Oeste 0 -- -- 86
2018-11-25 16:00:00 17.6 14 Oeste 44 Sudoeste 0 -- -- 81
2018-11-25 15:00:00 18.2 15 Oeste 39 Noroeste 0 -- -- 74
2018-11-25 14:00:00 17.2 11 Oeste 31 Oeste 0 -- -- 81
2018-11-25 13:00:00 16.8 17 Oeste 32 Oeste 0 -- -- 85
2018-11-25 12:00:00 15.9 13 Oeste 33 Oeste 0 -- -- 88
2018-11-25 11:00:00 16.5 10 Oeste 27 Oeste 0 -- -- 77
2018-11-25 10:00:00 15.7 9 Noroeste 21 Noroeste 0 -- -- 77
2018-11-25 09:00:00 14.8 8 Norte 20 Noroeste 0 -- -- 80
2018-11-25 08:00:00 15.4 13 Noroeste 31 Noroeste 0 -- -- 73
2018-11-25 07:00:00 16.4 12 Norte 31 Noroeste 0 -- -- 65
2018-11-25 06:00:00 13.1 9 Norte 28 Nordeste 0 -- -- 84
2018-11-25 05:00:00 11 6 Norte 16 Nordeste 0 -- -- 85
2018-11-25 04:00:00 10.8 5 Norte 13 Nordeste 0 -- -- 87
2018-11-25 03:00:00 10.1 7 Norte 13 Norte 0 -- -- 88
2018-11-25 02:00:00 10.7 9 Nordeste 14 Nordeste 0 -- -- 86
2018-11-25 01:00:00 9.2 5 Nordeste 10 Nordeste 0 -- -- 92
2018-11-25 00:00:00 9.9 4 Norte 7 Norte 0 -- -- 89
2018-11-24 23:00:00 10.6 6 Nordeste 8 Nordeste 0 -- -- 89
2018-11-24 22:00:00 9.9 2 Norte 9 Nordeste 0 -- -- 88
2018-11-24 21:00:00 9.8 0 Calma 8 Nordeste 0 -- -- 87
2018-11-24 20:00:00 10.8 6 Norte 11 Norte 0 -- -- 80
2018-11-24 19:00:00 12.8 7 Noroeste 14 Norte 0 -- -- 78
2018-11-24 18:00:00 14.3 4 Noroeste 15 Noroeste 0 -- -- 68
2018-11-24 17:00:00 17.4 7 Noroeste 17 Noroeste 0 -- -- 48
2018-11-24 16:00:00 18.3 11 Oeste 31 Oeste 0 -- -- 65
2018-11-24 15:00:00 18.8 12 Oeste 28 Noroeste 0 -- -- 56
2018-11-24 14:00:00 17.5 13 Sudoeste 26 Sudoeste 0 -- -- 64
2018-11-24 13:00:00 17.4 11 Sudoeste 22 Sudoeste 0 -- -- 70
2018-11-24 12:00:00 17.9 7 Oeste 13 Nordeste 0 -- -- 65
2018-11-24 11:00:00 17.1 4 Nordeste 18 Nordeste 0 -- -- 65
2018-11-24 10:00:00 13.3 4 Este 21 Nordeste 0 -- -- 70
2018-11-24 09:00:00 11.4 6 Nordeste 19 Nordeste 0 -- -- 81
2018-11-24 08:00:00 10.6 10 Nordeste 20 Nordeste 0 -- -- 79
2018-11-24 07:00:00 10.8 4 Nordeste 20 Nordeste 0 -- -- 80
2018-11-24 06:00:00 11.4 12 Nordeste 26 Nordeste 0 -- -- 78
2018-11-24 05:00:00 11.8 10 Nordeste 26 Nordeste 0 -- -- 77
2018-11-24 04:00:00 12.3 20 Nordeste 30 Nordeste 0 -- -- 76
2018-11-24 03:00:00 12.4 12 Nordeste 25 Nordeste 0 -- -- 76
2018-11-24 02:00:00 12.4 8 Nordeste 22 Nordeste 0 -- -- 77
2018-11-24 01:00:00 12.5 9 Nordeste 18 Nordeste 0 -- -- 79
2018-11-24 00:00:00 12.6 9 Nordeste 20 Nordeste 0 -- -- 80
2018-11-23 23:00:00 12.7 10 Nordeste 21 Nordeste 0 -- -- 79
2018-11-23 22:00:00 12.8 7 Nordeste 21 Nordeste 0 -- -- 81
2018-11-23 21:00:00 11.1 7 Nordeste 11 Nordeste 0 -- -- 96
2018-11-23 20:00:00 12.1 6 Nordeste 10 Nordeste 0 -- -- 94
2018-11-23 19:00:00 13.4 6 Nordeste 9 Norte 0 -- -- 93
2018-11-23 18:00:00 15 3 Nordeste 10 Sudoeste 0 -- -- 87
2018-11-23 17:00:00 17.4 4 Sudoeste 12 Oeste 0 -- -- 78
2018-11-23 16:00:00 17.2 6 Oeste 15 Oeste 0 -- -- 72
2018-11-23 15:00:00 17 5 Oeste 16 Oeste 0 -- -- 83
2018-11-23 14:00:00 16.2 9 Oeste 18 Oeste 0 -- -- 86
2018-11-23 13:00:00 15.9 7 Oeste 23 Oeste 0 -- -- 87
2018-11-23 12:00:00 15.8 7 Oeste 18 Oeste 0 -- -- 88
2018-11-23 11:00:00 15.4 8 Sudoeste 14 Sudoeste 0 -- -- 95
2018-11-23 10:00:00 14 3 Nordeste 8 Nordeste 0 -- -- 99
2018-11-23 09:00:00 13.1 0 Calma 15 Nordeste 2.4 -- -- 98
2018-11-23 08:00:00 13 8 Norte 12 Norte 2 -- -- 98
2018-11-23 07:00:00 -- 5 Nordeste 10 Nordeste 0 -- -- --
2018-11-23 06:00:00 13.1 4 Nordeste 12 Nordeste 1.2 -- -- 96
2018-11-23 05:00:00 13.3 4 Nordeste 15 Nordeste 1 -- -- 95
2018-11-23 04:00:00 13.2 4 Nordeste 13 Nordeste 0 -- -- 94
2018-11-23 03:00:00 12.9 7 Nordeste 12 Nordeste 0 -- -- 95
2018-11-23 02:00:00 12.8 5 Nordeste 10 Nordeste 0 -- -- 94
2018-11-23 01:00:00 12.9 5 Norte 12 Nordeste 0 -- -- 93
2018-11-23 00:00:00 12.7 8 Nordeste 12 Nordeste 0 -- -- 94
2018-11-22 23:00:00 12.6 7 Nordeste 15 Nordeste 0 -- -- 95
2018-11-22 22:00:00 12.7 8 Nordeste 12 Nordeste 0 -- -- 95
2018-11-22 21:00:00 13.1 4 Norte 12 Nordeste 0 -- -- 93
2018-11-22 20:00:00 14.2 5 Nordeste 13 Norte 0 -- -- 92
2018-11-22 19:00:00 14.9 4 Nordeste 10 Oeste 0 -- -- 91
2018-11-22 18:00:00 15.6 2 Nordeste 5 Norte 0 -- -- 91
2018-11-22 17:00:00 16.3 3 Norte 5 Norte 0 -- -- 88
2018-11-22 16:00:00 16.4 3 Norte 4 Nordeste 0 -- -- 86
2018-11-22 15:00:00 16.4 0 Calma 8 Sudeste 0 -- -- 82
2018-11-22 14:00:00 16.2 6 Sur 13 Sudeste 0 -- -- 80
2018-11-22 13:00:00 16.6 2 Este 18 Nordeste 0 -- -- 81
2018-11-22 12:00:00 14.9 8 Nordeste 23 Nordeste 0 -- -- 86
2018-11-22 11:00:00 -- 0 Calma 9 Nordeste 0.4 -- -- --
2018-11-22 10:00:00 12.7 4 Nordeste 11 Nordeste 0.2 -- -- 95
2018-11-22 09:00:00 12.4 0 Calma 9 Nordeste 0.6 -- -- 95
2018-11-22 08:00:00 12.4 6 Nordeste 12 Nordeste 0.4 -- -- 94
2018-11-22 07:00:00 12.6 7 Norte 21 Nordeste 0 -- -- 91
2018-11-22 06:00:00 12.3 7 Nordeste 16 Nordeste 0 -- -- 95
2018-11-22 05:00:00 12 6 Nordeste 14 Nordeste 0 -- -- 97
2018-11-22 04:00:00 12 2 Nordeste 11 Nordeste 0 -- -- 98
2018-11-22 03:00:00 -- 6 Nordeste 11 Nordeste 0 -- -- --
2018-11-22 02:00:00 11.6 5 Norte 8 Nordeste 0 -- -- 99
2018-11-22 01:00:00 11.8 0 Calma 9 Nordeste 0 -- -- 99
2018-11-22 00:00:00 12.1 6 Nordeste 12 Norte 0 -- -- 98
2018-11-21 23:00:00 12.9 4 Nordeste 9 Nordeste 0 -- -- 98
2018-11-21 22:00:00 13.7 0 Calma 8 Nordeste 0 -- -- 98
2018-11-21 21:00:00 14.3 0 Calma 6 Nordeste 0 -- -- 98
2018-11-21 20:00:00 14.6 0 Calma 10 Oeste 0 -- -- 97
2018-11-21 19:00:00 14.8 0 Calma 4 Noroeste 0.4 -- -- 96
2018-11-21 18:00:00 15.1 0 Calma 8 Oeste 0.8 -- -- 95
2018-11-21 17:00:00 15.6 3 Sudoeste 8 Nordeste 0.2 -- -- 95
2018-11-21 16:00:00 15.8 2 Noroeste 6 Noroeste 0.4 -- -- 92
2018-11-21 15:00:00 16.3 3 Oeste 9 Oeste 0 -- -- 90
2018-11-21 14:00:00 15.7 0 Calma 3 Nordeste 0.2 -- -- 97
2018-11-21 13:00:00 14.6 0 Calma 12 Nordeste 0.8 -- -- 98
2018-11-21 12:00:00 13.9 6 Nordeste 10 Nordeste 1 -- -- 98
2018-11-21 11:00:00 -- 0 Calma 10 Nordeste 1.8 -- -- --
2018-11-21 10:00:00 13 4 Nordeste 10 Nordeste 1.6 -- -- 96
2018-11-21 09:00:00 12.6 6 Nordeste 10 Nordeste 0 -- -- 95
2018-11-21 08:00:00 12.3 7 Nordeste 14 Nordeste 0 -- -- 96
2018-11-21 07:00:00 12.2 3 Norte 9 Nordeste 0.8 -- -- 96
2018-11-21 06:00:00 12 8 Nordeste 12 Nordeste 0 -- -- 94
2018-11-21 05:00:00 11.4 6 Norte 10 Norte 0 -- -- 91
2018-11-21 04:00:00 13.2 5 Nordeste 9 Nordeste 0 -- -- 86
2018-11-21 03:00:00 -- 5 Noroeste 18 Noroeste 0 -- -- --
2018-11-21 02:00:00 14.3 6 Noroeste 19 Oeste 0 -- -- 84
2018-11-21 01:00:00 12.4 4 Norte 8 Noroeste 0 -- -- 90
2018-11-21 00:00:00 12.4 6 Norte 13 Nordeste 0 -- -- 89
2018-11-20 23:00:00 12.1 7 Norte 13 Norte 0 -- -- 87
2018-11-20 22:00:00 14.3 6 Norte 14 Noroeste 0 -- -- 78
2018-11-20 21:00:00 16.1 7 Noroeste 20 Noroeste 0 -- -- 65
2018-11-20 20:00:00 15.7 8 Noroeste 20 Noroeste 0 -- -- 65
2018-11-20 19:00:00 14.6 8 Noroeste 16 Noroeste 0 -- -- 68
2018-11-20 18:00:00 15.7 9 Noroeste 31 Noroeste 0 -- -- 64
2018-11-20 17:00:00 17.8 15 Noroeste 32 Oeste 0 -- -- 54
2018-11-20 16:00:00 18.2 18 Noroeste 36 Noroeste 0 -- -- 55
2018-11-20 15:00:00 16.7 10 Oeste 21 Oeste 0 -- -- 88
2018-11-20 14:00:00 15.8 5 Nordeste 8 Nordeste 0 -- -- 98
2018-11-20 13:00:00 13.7 3 Nordeste 11 Nordeste 5.2 -- -- 98
2018-11-20 12:00:00 13.5 5 Nordeste 11 Nordeste 0.4 -- -- 97
2018-11-20 11:00:00 13.6 2 Nordeste 15 Noroeste 2.6 -- -- 95
2018-11-20 10:00:00 13.7 4 Nordeste 11 Nordeste 0 -- -- 92
2018-11-20 09:00:00 12.9 6 Nordeste 10 Nordeste 0.2 -- -- 94
2018-11-20 08:00:00 13.1 6 Nordeste 17 Noroeste 0 -- -- 89
2018-11-20 07:00:00 12.7 3 Nordeste 16 Norte 0 -- -- 92
2018-11-20 06:00:00 11.6 6 Norte 11 Nordeste 0.2 -- -- 94
2018-11-20 05:00:00 10.9 6 Nordeste 12 Nordeste 0 -- -- 94
2018-11-20 04:00:00 10.6 4 Norte 11 Norte 0 -- -- 92
2018-11-20 03:00:00 -- 5 Norte 24 Noroeste 0 -- -- --
2018-11-20 02:00:00 11.7 9 Noroeste 18 Noroeste 0 -- -- 93
2018-11-20 01:00:00 10.8 5 Norte 9 Nordeste 0 -- -- 96
2018-11-20 00:00:00 11.6 4 Norte 8 Nordeste 0 -- -- 95
2018-11-19 23:00:00 12.7 5 Norte 9 Norte 0 -- -- 95
2018-11-19 22:00:00 13.1 4 Norte 11 Norte 0 -- -- 96
2018-11-19 21:00:00 13.7 0 Calma 10 Nordeste 0 -- -- 96
2018-11-19 20:00:00 14.1 0 Calma 6 Nordeste 0 -- -- 95
2018-11-19 19:00:00 14.7 5 Nordeste 11 Nordeste 0 -- -- 92
2018-11-19 18:00:00 15.5 8 Noroeste 30 Sudoeste 0 -- -- 88
2018-11-19 17:00:00 15.6 11 Oeste 36 Oeste 0.2 -- -- 90
2018-11-19 16:00:00 15.5 21 Oeste 46 Oeste 0.6 -- -- 91
2018-11-19 15:00:00 17 21 Oeste 47 Oeste 0 -- -- 83
2018-11-19 14:00:00 16.7 19 Oeste 39 Oeste 0 -- -- 82
2018-11-19 13:00:00 16.6 15 Oeste 35 Noroeste 0 -- -- 80
2018-11-19 12:00:00 17.3 16 Oeste 32 Oeste 0 -- -- 80
2018-11-19 11:00:00 15.7 13 Oeste 25 Oeste 0 -- -- 89
2018-11-19 10:00:00 13.6 0 Calma 7 Nordeste 0 -- -- 99
2018-11-19 09:00:00 11.8 3 Norte 6 Nordeste 0.2 -- -- 99
2018-11-19 08:00:00 12.4 5 Norte 9 Nordeste 5 -- -- 99
2018-11-19 07:00:00 -- 0 Calma 7 Nordeste 3.6 -- -- --
2018-11-19 06:00:00 12.4 0 Calma 5 Norte 0.6 -- -- 99
2018-11-19 05:00:00 12.5 3 Norte 5 Nordeste 2 -- -- 99
2018-11-19 04:00:00 12.5 0 Calma 10 Nordeste 2.4 -- -- 98
2018-11-19 03:00:00 -- 7 Norte 14 Nordeste 0.4 -- -- --
2018-11-19 02:00:00 12.8 3 Nordeste 12 Nordeste 3.8 -- -- 97
2018-11-19 01:00:00 12.8 9 Nordeste 18 Norte 0.8 -- -- 95
2018-11-19 00:00:00 12.5 5 Nordeste 12 Nordeste 0.2 -- -- 95
2018-11-18 23:00:00 12.7 5 Nordeste 9 Nordeste 0 -- -- 97
2018-11-18 22:00:00 12.7 4 Nordeste 15 Nordeste 0 -- -- 97
2018-11-18 21:00:00 13 10 Nordeste 19 Oeste 3.2 -- -- 97
2018-11-18 20:00:00 13.2 6 Noroeste 14 Oeste 0 -- -- 97
2018-11-18 19:00:00 -- 4 Nordeste 20 Nordeste 4 -- -- --
2018-11-18 18:00:00 13.5 4 Norte 26 Noroeste 17 -- -- 96
2018-11-18 17:00:00 14.6 9 Oeste 23 Oeste 3.4 -- -- 95
2018-11-18 16:00:00 14.9 8 Nordeste 14 Nordeste 5.6 -- -- 94
2018-11-18 15:00:00 15.5 3 Este 18 Norte 2.8 -- -- 92
2018-11-18 14:00:00 16.5 2 Nordeste 28 Sudeste 2.6 -- -- 86
2018-11-18 13:00:00 18.2 11 Sur 25 Sur 0 -- -- 68
2018-11-18 12:00:00 18.8 11 Sudeste 27 Sudeste 0 -- -- 67
2018-11-18 11:00:00 17.9 0 Calma 7 Nordeste 0 -- -- 76
2018-11-18 10:00:00 16.1 0 Calma 8 Noroeste 0 -- -- 87
2018-11-18 09:00:00 13.9 2 Nordeste 7 Nordeste 0 -- -- 93
2018-11-18 08:00:00 13 4 Nordeste 9 Norte 0 -- -- 93
2018-11-18 07:00:00 12.7 3 Nordeste 10 Nordeste 0 -- -- 93
2018-11-18 06:00:00 13.2 7 Nordeste 10 Norte 0 -- -- 92
2018-11-18 05:00:00 13.8 8 Nordeste 12 Nordeste 0 -- -- 89
2018-11-18 04:00:00 14.4 3 Nordeste 12 Nordeste 0 -- -- 89
2018-11-18 03:00:00 -- 3 Nordeste 13 Norte 0 -- -- --
2018-11-18 02:00:00 15.8 3 Norte 17 Sudeste 0 -- -- 82
2018-11-18 01:00:00 14.6 2 Norte 9 Sudeste 0 -- -- 92
2018-11-18 00:00:00 14.5 2 Norte 9 Nordeste 0 -- -- 95
2018-11-17 23:00:00 14.6 2 Sudeste 8 Sudoeste 0 -- -- 95
2018-11-17 22:00:00 14.6 3 Nordeste 8 Norte 0 -- -- 94
2018-11-17 21:00:00 15.2 2 Nordeste 6 Nordeste 0 -- -- 92
2018-11-17 20:00:00 16.9 2 Sudeste 11 Sudeste 0 -- -- 84
2018-11-17 19:00:00 17.4 2 Sudeste 16 Sur 0 -- -- 85
2018-11-17 18:00:00 17.9 6 Sur 20 Sur 0 -- -- 84
2018-11-17 17:00:00 18.7 11 Sur 27 Sudeste 0 -- -- 80
2018-11-17 16:00:00 19.9 11 Sur 25 Sur 0 -- -- 80
2018-11-17 15:00:00 19.7 14 Sudeste 32 Sudeste 0 -- -- 76
2018-11-17 14:00:00 19.8 14 Sur 24 Sur 0 -- -- 76
2018-11-17 13:00:00 21 5 Oeste 15 Oeste 0 -- -- 68
2018-11-17 12:00:00 20.6 10 Sudoeste 15 Sudoeste 0 -- -- 68
2018-11-17 11:00:00 18.7 2 Nordeste 8 Nordeste 0 -- -- 78
2018-11-17 10:00:00 15.9 3 Nordeste 11 Nordeste 0 -- -- 87
2018-11-17 09:00:00 13.3 6 Nordeste 13 Nordeste 0 -- -- 93
2018-11-17 08:00:00 12.2 8 Nordeste 12 Nordeste 0 -- -- 93
2018-11-17 07:00:00 12.4 8 Nordeste 12 Nordeste 0 -- -- 93
2018-11-17 06:00:00 12.7 9 Nordeste 12 Nordeste 0 -- -- 92
2018-11-17 05:00:00 12.9 7 Nordeste 12 Nordeste 0 -- -- 94
2018-11-17 04:00:00 13.1 3 Nordeste 12 Norte 0 -- -- 95
2018-11-17 03:00:00 -- 7 Nordeste 12 Nordeste 0 -- -- --
2018-11-17 02:00:00 12.7 6 Norte 9 Nordeste 0 -- -- 96
2018-11-17 01:00:00 13.8 6 Nordeste 11 Nordeste 0 -- -- 96
2018-11-17 00:00:00 14 7 Nordeste 10 Nordeste 0 -- -- 97
2018-11-16 23:00:00 14.1 6 Nordeste 8 Nordeste 0 -- -- 96
2018-11-16 22:00:00 14.4 3 Nordeste 6 Nordeste 0 -- -- 95
2018-11-16 21:00:00 15.2 5 Nordeste 6 Nordeste 0 -- -- 94
2018-11-16 20:00:00 16.3 3 Nordeste 8 Norte 0 -- -- 92
2018-11-16 19:00:00 17.9 4 Noroeste 16 Noroeste 0 -- -- 87
2018-11-16 18:00:00 18.8 8 Oeste 20 Noroeste 0 -- -- 83
2018-11-16 17:00:00 20.3 6 Sudoeste 22 Sudeste 0 -- -- 75
2018-11-16 16:00:00 21.1 11 Sur 21 Sudeste 0 -- -- 72
2018-11-16 15:00:00 21.6 11 Sur 18 Sudeste 0 -- -- 71
2018-11-16 14:00:00 21.6 6 Oeste 13 Sudoeste 0 -- -- 70
2018-11-16 13:00:00 21.5 4 Oeste 9 Sudoeste 0 -- -- 64
2018-11-16 12:00:00 19.7 4 Sudoeste 8 Sudoeste 0 -- -- 70
2018-11-16 11:00:00 17.8 2 Norte 8 Nordeste 0 -- -- 82
2018-11-16 10:00:00 16.6 3 Nordeste 12 Nordeste 0 -- -- 82
2018-11-16 09:00:00 13.8 4 Nordeste 15 Nordeste 0 -- -- 90
2018-11-16 08:00:00 12.6 7 Nordeste 13 Nordeste 0 -- -- 94
2018-11-16 07:00:00 -- 7 Nordeste 12 Nordeste 0 -- -- --
2018-11-16 06:00:00 13.2 4 Nordeste 12 Nordeste 0 -- -- 95
2018-11-16 05:00:00 13.4 7 Nordeste 10 Nordeste 0 -- -- 96
2018-11-16 04:00:00 13.6 6 Nordeste 12 Nordeste 0 -- -- 97
2018-11-16 03:00:00 -- 5 Nordeste 9 Nordeste 0.2 -- -- --
2018-11-16 02:00:00 14.4 5 Nordeste 10 Nordeste 0 -- -- 97
2018-11-16 01:00:00 14.6 6 Nordeste 9 Nordeste 0 -- -- 97
2018-11-16 00:00:00 15.1 2 Nordeste 5 Nordeste 0 -- -- 95
2018-11-15 23:00:00 16.3 0 Calma 6 Nordeste 0 -- -- 95
2018-11-15 22:00:00 16.5 0 Calma 5 Nordeste 0.2 -- -- 94
2018-11-15 21:00:00 16.8 2 Nordeste 9 Nordeste 0.2 -- -- 92
2018-11-15 20:00:00 16.4 2 Nordeste 8 Norte 0 -- -- 91
2018-11-15 19:00:00 17 0 Calma 12 Sur 0 -- -- 87
2018-11-15 18:00:00 17.8 8 Sur 13 Sur 0 -- -- 82
2018-11-15 17:00:00 18.5 2 Sudeste 17 Sudeste 0 -- -- 84
2018-11-15 16:00:00 19.5 7 Sudeste 19 Sudeste 0 -- -- 77
2018-11-15 15:00:00 19.8 2 Nordeste 9 Nordeste 0 -- -- 79
2018-11-15 14:00:00 18.3 4 Sudoeste 9 Sudoeste 0 -- -- 80
2018-11-15 13:00:00 18.4 2 Sur 5 Sur 0 -- -- 78
2018-11-15 12:00:00 17.8 2 Sur 7 Sur 0 -- -- 79
2018-11-15 11:00:00 18 2 Sudoeste 6 Noroeste 0 -- -- 84
2018-11-15 10:00:00 15.1 3 Sur 5 Sur 0 -- -- 97
2018-11-15 09:00:00 14 3 Nordeste 6 Norte 0 -- -- 98
2018-11-15 08:00:00 13.4 5 Nordeste 8 Nordeste 0 -- -- 97
2018-11-15 07:00:00 12.8 5 Norte 9 Norte 0 -- -- 96
2018-11-15 06:00:00 13 5 Norte 11 Norte 0 -- -- 94
2018-11-15 05:00:00 14.2 5 Norte 19 Nordeste 0 -- -- 91
2018-11-15 04:00:00 14.4 2 Este 19 Norte 0.6 -- -- 93
2018-11-15 03:00:00 14.6 11 Norte 20 Norte 3.2 -- -- 94
2018-11-15 02:00:00 15.4 6 Sudeste 19 Sudeste 3.2 -- -- 93
2018-11-15 01:00:00 16 9 Norte 29 Sur 0.4 -- -- 89
2018-11-15 00:00:00 18.1 3 Este 13 Nordeste 0 -- -- 70
2018-11-14 23:00:00 17.3 3 Nordeste 11 Nordeste 0 -- -- 79
2018-11-14 22:00:00 17.7 8 Nordeste 14 Norte 0 -- -- 75
2018-11-14 21:00:00 17.2 4 Nordeste 12 Nordeste 0 -- -- 79
2018-11-14 20:00:00 17.3 6 Norte 8 Norte 0 -- -- 79
2018-11-14 19:00:00 18.7 3 Nordeste 16 Sur 0 -- -- 76
2018-11-14 18:00:00 20.7 10 Sudeste 29 Sur 0 -- -- 64
2018-11-14 17:00:00 22 16 Sudeste 33 Este 0 -- -- 59
2018-11-14 16:00:00 23 6 Sudeste 31 Sudeste 0 -- -- 57
2018-11-14 15:00:00 23.7 11 Sudeste 31 Sudeste 0 -- -- 55
2018-11-14 14:00:00 23.5 13 Sudeste 33 Sudeste 0 -- -- 59
2018-11-14 13:00:00 22.6 12 Sudeste 35 Sudeste 0 -- -- 62
2018-11-14 12:00:00 22.6 13 Sudeste 26 Sudeste 0 -- -- 62
2018-11-14 11:00:00 22.5 12 Sudeste 28 Sudeste 0 -- -- 61
2018-11-14 10:00:00 18.7 3 Sudeste 10 Sudeste 0 -- -- 87
2018-11-14 09:00:00 14.9 3 Nordeste 10 Nordeste 0 -- -- 98
2018-11-14 08:00:00 13.5 3 Nordeste 7 Norte 0 -- -- 97
2018-11-14 07:00:00 -- 4 Norte 6 Nordeste 0 -- -- --
2018-11-14 06:00:00 13.2 5 Norte 8 Nordeste 0 -- -- 96
2018-11-14 05:00:00 13.5 3 Norte 6 Nordeste 0 -- -- 95
2018-11-14 04:00:00 14.6 2 Nordeste 9 Noroeste 0.2 -- -- 94
2018-11-14 03:00:00 14.4 3 Norte 11 Nordeste 0 -- -- 90
2018-11-14 02:00:00 14.8 4 Nordeste 10 Norte 0 -- -- 88
2018-11-14 01:00:00 14.7 2 Nordeste 13 Nordeste 0 -- -- 90
2018-11-14 00:00:00 15.1 7 Nordeste 14 Nordeste 0 -- -- 92
2018-11-13 23:00:00 13.9 6 Nordeste 10 Nordeste 0 -- -- 95
2018-11-13 22:00:00 14 5 Norte 10 Norte 0 -- -- 94
2018-11-13 21:00:00 14.7 0 Calma 8 Norte 0 -- -- 92
2018-11-13 20:00:00 16 2 Nordeste 10 Norte 0 -- -- 89
2018-11-13 19:00:00 16.5 3 Norte 6 Norte 0 -- -- 88
2018-11-13 18:00:00 18 0 Calma 5 Noroeste 0 -- -- 84
2018-11-13 17:00:00 19.5 3 Oeste 9 Sudoeste 0 -- -- 69
2018-11-13 16:00:00 21.6 4 Oeste 12 Sudoeste 0 -- -- 61
2018-11-13 15:00:00 20.9 7 Sudoeste 13 Sudoeste 0 -- -- 62
2018-11-13 14:00:00 21.3 4 Sudoeste 10 Sudoeste 0 -- -- 63
2018-11-13 13:00:00 20.5 0 Calma 9 Sur 0 -- -- 74
2018-11-13 12:00:00 20.2 0 Calma 7 Nordeste 0 -- -- 69
2018-11-13 11:00:00 19.3 3 Nordeste 13 Nordeste 0 -- -- 70
2018-11-13 10:00:00 15.3 5 Nordeste 13 Nordeste 0 -- -- 75
2018-11-13 09:00:00 13.5 5 Nordeste 11 Nordeste 0 -- -- 82
2018-11-13 08:00:00 13.2 5 Nordeste 15 Nordeste 0 -- -- 83
2018-11-13 07:00:00 -- 6 Nordeste 13 Nordeste 0 -- -- --
2018-11-13 06:00:00 12.3 12 Nordeste 18 Nordeste 0 -- -- 90
2018-11-13 05:00:00 12.7 5 Nordeste 14 Nordeste 0 -- -- 90
2018-11-13 04:00:00 12.9 4 Nordeste 12 Nordeste 0 -- -- 91
2018-11-13 03:00:00 12.7 9 Nordeste 13 Nordeste 0 -- -- 94
2018-11-13 02:00:00 12.7 9 Nordeste 13 Nordeste 0 -- -- 96
2018-11-13 01:00:00 12.2 5 Nordeste 12 Nordeste 0 -- -- 96
2018-11-13 00:00:00 12.3 6 Nordeste 8 Nordeste 0 -- -- 96
2018-11-12 23:00:00 12.4 0 Calma 6 Nordeste 0 -- -- 95
2018-11-12 22:00:00 13.5 5 Nordeste 11 Norte 0 -- -- 95
2018-11-12 21:00:00 14.3 4 Nordeste 9 Nordeste 0 -- -- 95
2018-11-12 20:00:00 14.7 3 Nordeste 5 Nordeste 0 -- -- 94
2018-11-12 19:00:00 14.9 0 Calma 5 Norte 0 -- -- 92
2018-11-12 18:00:00 16 3 Norte 5 Norte 0 -- -- 89
2018-11-12 17:00:00 16.8 3 Sur 12 Sudoeste 0 -- -- 84
2018-11-12 16:00:00 17.4 5 Sur 8 Sur 0 -- -- 84
2018-11-12 15:00:00 17.8 3 Sudoeste 13 Sudoeste 0 -- -- 83
2018-11-12 14:00:00 17.7 8 Sur 12 Sudoeste 0 -- -- 85
2018-11-12 13:00:00 19 5 Sudoeste 10 Sur 0 -- -- 76
2018-11-12 12:00:00 18.6 4 Sudoeste 8 Sudoeste 0 -- -- 79
2018-11-12 11:00:00 17.5 6 Sudoeste 11 Sudoeste 0 -- -- 78
2018-11-12 10:00:00 16.9 0 Calma 10 Nordeste 0 -- -- 73
2018-11-12 09:00:00 12.2 4 Norte 9 Nordeste 0 -- -- 91
2018-11-12 08:00:00 10.2 8 Nordeste 15 Nordeste 0 -- -- 90
2018-11-12 07:00:00 -- 9 Nordeste 12 Nordeste 0 -- -- --
2018-11-12 06:00:00 10.4 7 Nordeste 13 Nordeste 0 -- -- 89
2018-11-12 05:00:00 11.1 5 Nordeste 13 Nordeste 0 -- -- 89
2018-11-12 04:00:00 10.7 8 Nordeste 13 Nordeste 0 -- -- 92
2018-11-12 03:00:00 11.2 8 Nordeste 12 Nordeste 0 -- -- 92
2018-11-12 02:00:00 12 9 Nordeste 13 Nordeste 0 -- -- 93
2018-11-12 01:00:00 12.7 5 Nordeste 16 Nordeste 0 -- -- 95
2018-11-12 00:00:00 11.7 8 Nordeste 13 Nordeste 0 -- -- 95
2018-11-11 23:00:00 12.3 6 Nordeste 11 Nordeste 0 -- -- 96
2018-11-11 22:00:00 12.7 6 Norte 10 Norte 0 -- -- 97
2018-11-11 21:00:00 13.5 4 Norte 7 Noroeste 0 -- -- 96
2018-11-11 20:00:00 13 0 Calma 5 Norte 0 -- -- 92
2018-11-11 19:00:00 14.3 3 Norte 5 Norte 0 -- -- 90
2018-11-11 18:00:00 17 3 Noroeste 8 Sudoeste 0 -- -- 85
2018-11-11 17:00:00 18.7 5 Sudoeste 11 Sudoeste 0 -- -- 78
2018-11-11 16:00:00 19.5 5 Sudoeste 14 Sudoeste 0 -- -- 71
2018-11-11 15:00:00 20.3 8 Sudoeste 12 Sudoeste 0 -- -- 67
2018-11-11 14:00:00 20.2 8 Sudoeste 13 Sur 0 -- -- 71
2018-11-11 13:00:00 20.1 8 Sur 14 Sur 0 -- -- 73
2018-11-11 12:00:00 20.5 3 Sur 11 Sudeste 0 -- -- 69
2018-11-11 11:00:00 19.6 5 Sur 12 Sudeste 0 -- -- 73
2018-11-11 10:00:00 18.8 5 Sur 21 Nordeste 0 -- -- 67
2018-11-11 09:00:00 15.8 11 Nordeste 29 Nordeste 0 -- -- 73
2018-11-11 08:00:00 14.8 5 Nordeste 22 Nordeste 0 -- -- 76
2018-11-11 07:00:00 -- 9 Nordeste 21 Nordeste 0 -- -- --
2018-11-11 06:00:00 14.8 6 Nordeste 26 Nordeste 0 -- -- 78
2018-11-11 05:00:00 14.3 5 Nordeste 12 Este 0 -- -- 81
2018-11-11 04:00:00 13 9 Nordeste 18 Nordeste 0 -- -- 90
2018-11-11 03:00:00 12.9 2 Sudoeste 9 Noroeste 0 -- -- 91
2018-11-11 02:00:00 13.2 4 Noroeste 15 Norte 0 -- -- 85
2018-11-11 01:00:00 14.4 6 Norte 17 Norte 0 -- -- 81
2018-11-11 00:00:00 16.5 9 Norte 24 Nordeste 0 -- -- 71
2018-11-10 23:00:00 14.9 10 Norte 19 Nordeste 0 -- -- 80
2018-11-10 22:00:00 14.7 5 Norte 19 Norte 0 -- -- 84
2018-11-10 21:00:00 13.1 5 Norte 10 Norte 0 -- -- 91
2018-11-10 20:00:00 13.4 4 Norte 9 Nordeste 0 -- -- 91
2018-11-10 19:00:00 14.7 3 Norte 6 Norte 0 -- -- 86
2018-11-10 18:00:00 17.1 4 Noroeste 25 Oeste 0 -- -- 76
2018-11-10 17:00:00 18.8 11 Oeste 26 Oeste 0 -- -- 63
2018-11-10 16:00:00 19 13 Oeste 28 Oeste 0 -- -- 66
2018-11-10 15:00:00 19.7 5 Oeste 13 Sur 0 -- -- 56
2018-11-10 14:00:00 19 2 Sudoeste 21 Noroeste 0 -- -- 52
2018-11-10 13:00:00 18.7 9 Oeste 19 Oeste 0 -- -- 64
2018-11-10 12:00:00 19.3 7 Sudoeste 14 Sudoeste 0 -- -- 51
2018-11-10 11:00:00 19 9 Sur 21 Nordeste 0 -- -- 53
2018-11-10 10:00:00 18 8 Nordeste 21 Nordeste 0 -- -- 52
2018-11-10 09:00:00 13 3 Nordeste 9 Nordeste 0 -- -- 81
2018-11-10 08:00:00 12.7 7 Nordeste 17 Norte 0 -- -- 68
2018-11-10 07:00:00 -- 6 Norte 19 Nordeste 0 -- -- --
2018-11-10 06:00:00 14 12 Nordeste 24 Nordeste 0 -- -- 60
2018-11-10 05:00:00 14.1 10 Nordeste 22 Nordeste 0 -- -- 59
2018-11-10 04:00:00 14.1 13 Nordeste 25 Nordeste 0 -- -- 59
2018-11-10 03:00:00 14.5 13 Nordeste 26 Nordeste 0 -- -- 57
2018-11-10 02:00:00 14.9 10 Norte 28 Nordeste 0 -- -- 54
2018-11-10 01:00:00 15.6 16 Nordeste 31 Nordeste 0 -- -- 51
2018-11-10 00:00:00 16.6 13 Nordeste 37 Nordeste 0 -- -- 46